Time;durP1;ratioP1;P1;durP2;ratioP2;P2;SDS_P1;SDS_P2;PMS_P1;PMS_P2;Temp;Humidity;BMP_temperature;BMP_pressure;BME280_temperature;BME280_humidity;BME280_pressure;Samples;Min_cycle;Max_cycle;Signal;HPM_P1;HPM_P2
2022/09/15 00:00:25;;;;;;;2.80;0.97;;;;;;;19.34;100.00;99084.94;5031009;28;20854;-52
2022/09/15 00:02:52;;;;;;;1.00;0.90;;;;;;;19.35;100.00;99089.34;5031234;28;20430;-53
2022/09/15 00:05:19;;;;;;;4.10;1.20;;;;;;;19.33;100.00;99092.16;5030815;28;20430;-53
2022/09/15 00:07:45;;;;;;;1.47;1.37;;;;;;;19.34;100.00;99093.03;5030874;28;20996;-53
2022/09/15 00:10:12;;;;;;;1.13;0.87;;;;;;;19.28;100.00;99093.53;5013138;28;20459;-53
2022/09/15 00:12:38;;;;;;;1.20;1.10;;;;;;;19.20;100.00;99092.34;5031011;28;20956;-53
2022/09/15 00:15:05;;;;;;;1.10;0.80;;;;;;;19.28;100.00;99086.28;5026658;28;20429;-53
2022/09/15 00:17:32;;;;;;;0.80;0.60;;;;;;;19.37;100.00;99090.06;5018600;28;20520;-52
2022/09/15 00:19:58;;;;;;;1.00;0.90;;;;;;;19.30;100.00;99089.72;5030570;28;20459;-53
2022/09/15 00:22:25;;;;;;;1.03;0.93;;;;;;;19.32;100.00;99084.19;5028321;28;20501;-53
2022/09/15 00:24:51;;;;;;;4.63;1.37;;;;;;;19.55;100.00;99095.75;5030343;28;20502;-53
2022/09/15 00:27:17;;;;;;;2.63;1.20;;;;;;;19.50;100.00;99088.03;5023441;28;20477;-53
2022/09/15 00:29:44;;;;;;;1.37;1.20;;;;;;;19.45;100.00;99090.25;5025665;28;20536;-53
2022/09/15 00:32:10;;;;;;;9.03;1.10;;;;;;;19.51;100.00;99090.59;5030439;28;20430;-53
2022/09/15 00:34:36;;;;;;;0.70;0.70;;;;;;;19.49;100.00;99089.03;5030814;28;20873;-53
2022/09/15 00:37:03;;;;;;;1.07;1.00;;;;;;;19.47;100.00;99085.63;5030420;28;20469;-53
2022/09/15 00:39:29;;;;;;;3.07;1.57;;;;;;;19.47;100.00;99082.91;5030187;28;21019;-53
2022/09/15 00:41:56;;;;;;;0.93;0.83;;;;;;;19.43;100.00;99087.69;5030807;28;20765;-52
2022/09/15 00:44:22;;;;;;;1.00;1.00;;;;;;;19.45;100.00;99084.88;5030307;28;20474;-53
2022/09/15 00:46:51;;;;;;;5.30;2.30;;;;;;;19.39;100.00;99082.69;5030285;28;20622;-53
2022/09/15 00:49:40;;;;;;;1.47;1.37;;;;;;;19.32;100.00;99084.19;5030396;28;20555;-53
2022/09/15 00:52:18;;;;;;;0.83;0.83;;;;;;;19.31;100.00;99074.38;5030048;28;20434;-53
2022/09/15 00:55:30;;;;;;;12.13;1.30;;;;;;;19.44;100.00;99080.47;5003694;28;20430;-52
2022/09/15 00:58:00;;;;;;;1.20;0.90;;;;;;;19.38;100.00;99075.59;5023325;28;20468;-53
2022/09/15 01:00:28;;;;;;;0.70;0.70;;;;;;;19.36;100.00;99081.13;5029554;28;20426;-53
2022/09/15 01:02:56;;;;;;;1.90;1.30;;;;;;;19.37;100.00;99076.59;5004865;28;20453;-53
2022/09/15 01:05:29;;;;;;;1.50;1.30;;;;;;;19.49;100.00;99079.09;5029761;28;20923;-54
2022/09/15 01:08:00;;;;;;;0.70;0.60;;;;;;;19.28;100.00;99078.22;5029893;28;20423;-53
2022/09/15 01:10:29;;;;;;;6.60;1.80;;;;;;;19.15;100.00;99077.53;5029787;28;20501;-53
2022/09/15 01:13:05;;;;;;;1.10;0.80;;;;;;;19.47;100.00;99075.69;5029485;28;20494;-53
2022/09/15 01:16:05;;;;;;;0.90;0.87;;;;;;;19.63;100.00;99080.66;5025130;28;20472;-53
2022/09/15 01:18:44;;;;;;;1.00;0.90;;;;;;;19.80;100.00;99074.66;5021937;28;20447;-52
2022/09/15 01:21:20;;;;;;;0.90;0.90;;;;;;;19.71;100.00;99078.16;5029701;28;20464;-53
2022/09/15 01:24:12;;;;;;;1.10;1.00;;;;;;;19.89;100.00;99082.97;5024894;28;20478;-52
2022/09/15 01:27:05;;;;;;;1.10;1.00;;;;;;;19.73;100.00;99080.72;5027543;28;20443;-53
2022/09/15 01:30:07;;;;;;;2.73;0.83;;;;;;;19.70;100.00;99075.59;5013179;28;20483;-53
2022/09/15 01:33:02;;;;;;;0.60;0.40;;;;;;;19.98;100.00;99069.50;5029488;28;20451;-53
2022/09/15 01:35:46;;;;;;;3.23;0.93;;;;;;;19.72;100.00;99079.84;4997364;28;20456;-53
2022/09/15 01:38:40;;;;;;;1.67;1.57;;;;;;;19.44;100.00;99081.31;5029404;28;20514;-53
2022/09/15 01:41:20;;;;;;;1.03;0.80;;;;;;;19.42;100.00;99074.34;5029448;28;20460;-53
2022/09/15 01:43:58;;;;;;;0.67;0.60;;;;;;;19.78;100.00;99083.88;5029214;28;20447;-53
2022/09/15 01:46:30;;;;;;;3.67;1.33;;;;;;;19.69;100.00;99079.28;5029129;28;20525;-53
2022/09/15 01:48:59;;;;;;;0.93;0.60;;;;;;;19.49;100.00;99080.94;5029276;28;20448;-53
2022/09/15 01:51:27;;;;;;;0.70;0.63;;;;;;;19.70;100.00;99078.28;5028928;28;20989;-53
2022/09/15 01:53:55;;;;;;;1.43;1.33;;;;;;;19.55;100.00;99084.97;5029148;28;20430;-53
2022/09/15 01:56:21;;;;;;;1.07;0.97;;;;;;;19.57;100.00;99083.00;5028831;28;20491;-53
2022/09/15 01:58:50;;;;;;;1.10;1.00;;;;;;;19.28;100.00;99077.34;5028898;28;20485;-53
2022/09/15 02:01:25;;;;;;;1.00;0.80;;;;;;;19.67;100.00;99084.78;5029062;28;20452;-53
2022/09/15 02:04:06;;;;;;;13.83;1.50;;;;;;;19.60;100.00;99091.72;5029279;28;20529;-53
2022/09/15 02:06:42;;;;;;;0.70;0.67;;;;;;;19.61;100.00;99088.03;5029750;28;20860;-53
2022/09/15 02:09:12;;;;;;;1.20;0.70;;;;;;;19.74;100.00;99094.09;5011860;28;20779;-53
2022/09/15 02:11:56;;;;;;;0.83;0.83;;;;;;;19.47;100.00;99091.88;5028957;28;20963;-53
2022/09/15 02:14:41;;;;;;;0.83;0.80;;;;;;;19.24;100.00;99083.00;5028943;28;20426;-53
2022/09/15 02:17:14;;;;;;;0.60;0.43;;;;;;;19.45;100.00;99087.56;5003518;28;20467;-53
2022/09/15 02:19:47;;;;;;;0.50;0.40;;;;;;;19.35;100.00;99083.94;5028911;28;20451;-53
2022/09/15 02:22:22;;;;;;;0.50;0.30;;;;;;;19.04;100.00;99093.72;5022563;28;20659;-53
2022/09/15 02:25:11;;;;;;;0.90;0.50;;;;;;;19.04;100.00;99102.66;5028938;28;20569;-53
2022/09/15 02:27:44;;;;;;;0.50;0.43;;;;;;;19.04;100.00;99096.41;5025903;28;20438;-53
2022/09/15 02:30:14;;;;;;;0.50;0.30;;;;;;;18.83;100.00;99096.34;5029074;28;20447;-53
2022/09/15 02:32:48;;;;;;;1.00;0.67;;;;;;;18.91;100.00;99102.84;5029210;28;20451;-53
2022/09/15 02:35:16;;;;;;;1.27;0.50;;;;;;;18.95;100.00;99098.03;5028877;28;20422;-53
2022/09/15 02:37:43;;;;;;;0.70;0.50;;;;;;;18.87;100.00;99093.28;5028634;28;20527;-52
2022/09/15 02:40:10;;;;;;;1.57;0.60;;;;;;;18.76;100.00;99109.44;5028487;28;20492;-52
2022/09/15 02:42:38;;;;;;;0.70;0.47;;;;;;;18.74;100.00;99100.63;5031698;28;20456;-53
2022/09/15 02:45:05;;;;;;;0.70;0.60;;;;;;;18.41;100.00;99109.56;5032428;28;20425;-52
2022/09/15 02:47:31;;;;;;;7.73;0.80;;;;;;;18.43;100.00;99106.75;5032428;28;20479;-53
2022/09/15 02:49:58;;;;;;;0.50;0.30;;;;;;;18.62;100.00;99110.53;5032268;28;20451;-52
2022/09/15 02:52:25;;;;;;;0.60;0.50;;;;;;;18.49;100.00;99107.09;5032451;28;20957;-53
2022/09/15 02:54:51;;;;;;;12.43;0.90;;;;;;;18.25;100.00;99114.47;5032220;28;20433;-52
2022/09/15 02:57:18;;;;;;;2.00;0.90;;;;;;;18.45;100.00;99113.72;5025252;28;20534;-53
2022/09/15 03:02:30;;;;;;;1.77;1.67;;;;;;;18.40;100.00;99110.56;5032283;28;20496;-53
2022/09/15 03:04:57;;;;;;;1.90;1.63;;;;;;;18.41;100.00;99117.66;5032023;28;20447;-52
2022/09/15 03:07:23;;;;;;;1.90;1.80;;;;;;;18.32;100.00;99121.06;5031914;28;20491;-52
2022/09/15 03:09:50;;;;;;;7.90;3.43;;;;;;;18.10;100.00;99129.13;5032327;28;20944;-52
2022/09/15 03:12:16;;;;;;;2.63;2.43;;;;;;;18.06;100.00;99123.09;5032260;28;20808;-52
2022/09/15 03:14:43;;;;;;;3.17;2.97;;;;;;;17.88;100.00;99136.16;5005056;28;20456;-52
2022/09/15 03:17:09;;;;;;;7.20;4.27;;;;;;;18.06;100.00;99133.84;5013008;28;20955;-52
2022/09/15 03:19:36;;;;;;;4.17;3.17;;;;;;;17.96;100.00;99146.34;5031979;28;20948;-52
2022/09/15 03:22:02;;;;;;;3.10;2.90;;;;;;;17.96;100.00;99144.50;5026025;28;20833;-52
2022/09/15 03:24:29;;;;;;;6.17;5.80;;;;;;;18.03;100.00;99151.09;5032332;28;20437;-52
2022/09/15 03:26:55;;;;;;;3.70;3.50;;;;;;;18.00;100.00;99151.34;5028825;28;20983;-52
2022/09/15 03:29:21;;;;;;;4.77;4.37;;;;;;;17.87;100.00;99155.09;5032155;28;20431;-52
2022/09/15 03:31:48;;;;;;;5.20;4.80;;;;;;;17.83;100.00;99157.16;5032292;28;20437;-52
2022/09/15 03:34:15;;;;;;;11.47;5.50;;;;;;;17.88;100.00;99152.28;5031760;28;20480;-52
2022/09/15 03:36:42;;;;;;;7.50;5.20;;;;;;;17.85;100.00;99152.53;5031243;28;20465;-52
2022/09/15 03:39:10;;;;;;;9.40;7.67;;;;;;;17.85;100.00;99152.53;5031766;28;20946;-52
2022/09/15 03:41:36;;;;;;;17.37;6.47;;;;;;;17.79;100.00;99162.88;5031647;28;20452;-52
2022/09/15 03:44:03;;;;;;;8.80;6.27;;;;;;;17.90;100.00;99157.53;5031583;28;20455;-52
2022/09/15 03:46:30;;;;;;;8.97;7.90;;;;;;;17.82;100.00;99155.47;5031156;28;20472;-52
2022/09/15 03:48:56;;;;;;;19.93;10.70;;;;;;;17.45;100.00;99166.25;5031255;28;20994;-52
2022/09/15 03:51:23;;;;;;;18.03;8.70;;;;;;;17.68;100.00;99161.88;5031110;28;20485;-52
2022/09/15 03:53:49;;;;;;;19.40;10.23;;;;;;;17.65;100.00;99162.06;5030459;28;20451;-52
2022/09/15 03:56:22;;;;;;;14.17;9.20;;;;;;;17.46;100.00;99170.66;5030962;28;20483;-52
2022/09/15 03:58:49;;;;;;;17.03;11.90;;;;;;;17.39;100.00;99164.03;5021052;28;20448;-52
2022/09/15 04:01:17;;;;;;;10.67;8.83;;;;;;;17.28;100.00;99160.44;5031293;28;20919;-52
2022/09/15 04:03:45;;;;;;;12.17;10.03;;;;;;;17.20;100.00;99161.00;5031080;28;20906;-52
2022/09/15 04:06:18;;;;;;;21.50;12.37;;;;;;;17.20;100.00;99170.88;5030742;28;21008;-52
2022/09/15 04:08:44;;;;;;;11.37;10.17;;;;;;;17.19;100.00;99172.72;5031491;28;20455;-52
2022/09/15 04:11:11;;;;;;;15.33;8.90;;;;;;;17.02;100.00;99176.63;5030832;28;20452;-52
2022/09/15 04:13:39;;;;;;;21.90;9.67;;;;;;;17.09;100.00;99185.09;5030925;28;20778;-52
2022/09/15 04:16:14;;;;;;;11.50;10.40;;;;;;;17.24;100.00;99183.09;5018100;28;20888;-52
2022/09/15 04:18:41;;;;;;;12.67;9.00;;;;;;;17.22;100.00;99190.44;5024512;28;20447;-52
2022/09/15 04:21:11;;;;;;;15.23;10.90;;;;;;;17.20;100.00;99187.00;5030873;28;20506;-52
2022/09/15 04:23:39;;;;;;;13.97;11.50;;;;;;;17.24;100.00;99192.03;5018581;28;20426;-51
2022/09/15 04:26:10;;;;;;;12.27;9.33;;;;;;;17.07;100.00;99195.09;5030622;28;20799;-52
2022/09/15 04:28:37;;;;;;;17.13;10.40;;;;;;;17.26;100.00;99198.13;5026926;28;20451;-52
2022/09/15 04:31:09;;;;;;;13.70;8.40;;;;;;;17.13;100.00;99202.69;5030654;28;20460;-52
2022/09/15 04:33:39;;;;;;;13.90;10.70;;;;;;;17.42;100.00;99205.94;5030486;28;20422;-52
2022/09/15 04:36:08;;;;;;;15.40;12.20;;;;;;;17.43;100.00;99200.47;5030384;28;20813;-52
2022/09/15 04:38:35;;;;;;;14.60;9.33;;;;;;;17.17;100.00;99202.38;5030378;28;20561;-52
2022/09/15 04:41:03;;;;;;;25.53;13.03;;;;;;;17.25;100.00;99207.16;5030368;28;20480;-52
2022/09/15 04:43:29;;;;;;;9.83;8.67;;;;;;;17.16;100.00;99206.03;5030192;28;20505;-52
2022/09/15 04:45:56;;;;;;;18.40;10.40;;;;;;;17.27;100.00;99212.41;5030170;28;21045;-52
2022/09/15 04:48:26;;;;;;;22.30;12.50;;;;;;;17.45;100.00;99211.94;5030068;28;20451;-52
2022/09/15 04:50:53;;;;;;;16.23;10.90;;;;;;;17.44;100.00;99217.44;5030470;28;20485;-52
2022/09/15 04:53:20;;;;;;;19.90;11.50;;;;;;;17.39;100.00;99214.22;5030222;28;20425;-52
2022/09/15 04:55:46;;;;;;;16.33;9.00;;;;;;;17.42;100.00;99220.22;5030475;28;20529;-52
2022/09/15 04:58:13;;;;;;;13.60;10.87;;;;;;;17.66;100.00;99227.41;5019455;28;20478;-52
2022/09/15 05:00:44;;;;;;;21.33;11.00;;;;;;;17.23;100.00;99227.06;5029998;28;20981;-52
2022/09/15 05:03:13;;;;;;;26.37;11.87;;;;;;;17.19;100.00;99229.13;5029697;28;20877;-52
2022/09/15 05:05:40;;;;;;;25.23;10.67;;;;;;;17.13;100.00;99224.16;5029580;28;20805;-52
2022/09/15 05:08:07;;;;;;;26.53;10.87;;;;;;;17.10;100.00;99232.44;5029599;28;20472;-52
2022/09/15 05:10:33;;;;;;;16.00;10.80;;;;;;;16.93;100.00;99238.19;5030026;28;20459;-52
2022/09/15 05:13:00;;;;;;;11.77;9.00;;;;;;;17.03;100.00;99239.25;5029773;28;20456;-52
2022/09/15 05:15:26;;;;;;;19.03;11.03;;;;;;;17.09;100.00;99244.16;5022785;28;20944;-52
2022/09/15 05:17:52;;;;;;;8.30;7.27;;;;;;;16.98;100.00;99247.63;5003164;28;21001;-52
2022/09/15 05:20:19;;;;;;;16.97;8.40;;;;;;;17.15;100.00;99249.97;5029512;28;20505;-52
2022/09/15 05:22:45;;;;;;;11.77;7.33;;;;;;;17.33;100.00;99252.28;5023275;28;20459;-52
2022/09/15 05:25:12;;;;;;;13.03;9.87;;;;;;;16.99;100.00;99248.47;5029688;28;20459;-52
2022/09/15 05:27:39;;;;;;;8.23;7.50;;;;;;;16.90;100.00;99258.06;5026609;28;20477;-52
2022/09/15 05:30:06;;;;;;;10.07;7.93;;;;;;;16.79;100.00;99256.13;5029523;28;20459;-52
2022/09/15 05:32:52;;;;;;;15.17;9.00;;;;;;;16.80;100.00;99259.69;5029613;28;20479;-52
2022/09/15 05:35:19;;;;;;;13.10;9.33;;;;;;;16.84;100.00;99262.03;5029063;28;20517;-52
2022/09/15 05:37:45;;;;;;;21.40;8.57;;;;;;;16.84;100.00;99270.06;5029602;28;20541;-52
2022/09/15 05:40:12;;;;;;;21.13;10.83;;;;;;;16.80;100.00;99278.47;5029410;28;20455;-52
2022/09/15 05:42:39;;;;;;;13.23;7.87;;;;;;;16.82;100.00;99279.22;5029459;28;20462;-52
2022/09/15 05:45:06;;;;;;;13.63;9.30;;;;;;;16.85;100.00;99274.47;5029200;28;20426;-52
2022/09/15 05:47:32;;;;;;;12.33;8.37;;;;;;;16.78;100.00;99275.88;5029153;28;20801;-52
2022/09/15 05:49:59;;;;;;;17.53;10.50;;;;;;;16.74;100.00;99269.03;5028921;28;20927;-52
2022/09/15 05:52:25;;;;;;;12.13;8.53;;;;;;;16.82;100.00;99284.56;5029392;28;20509;-52
2022/09/15 05:54:51;;;;;;;9.10;8.20;;;;;;;16.74;100.00;99281.59;5029176;28;20480;-52
2022/09/15 05:57:24;;;;;;;11.07;7.57;;;;;;;16.94;100.00;99283.72;5021097;28;20470;-52
2022/09/15 05:59:50;;;;;;;17.70;7.73;;;;;;;16.85;100.00;99287.03;5028001;28;20426;-52
2022/09/15 06:02:16;;;;;;;16.20;9.40;;;;;;;16.88;100.00;99293.06;5029038;28;20513;-52
2022/09/15 06:04:43;;;;;;;10.27;9.10;;;;;;;16.88;100.00;99289.53;5029223;28;20430;-52
2022/09/15 06:07:09;;;;;;;22.93;8.83;;;;;;;16.91;100.00;99293.81;5028861;28;20479;-52
2022/09/15 06:09:36;;;;;;;16.47;9.23;;;;;;;16.76;100.00;99288.56;5029016;28;20810;-52
2022/09/15 06:12:03;;;;;;;11.57;8.23;;;;;;;16.85;100.00;99297.78;5028945;28;20452;-52
2022/09/15 06:14:29;;;;;;;9.10;7.40;;;;;;;17.04;100.00;99294.66;5028833;28;20456;-52
2022/09/15 06:16:56;;;;;;;20.47;10.70;;;;;;;17.12;100.00;99293.13;5009318;28;20503;-52
2022/09/15 06:19:22;;;;;;;20.70;9.03;;;;;;;17.45;100.00;99286.31;5028199;28;20455;-52
2022/09/15 06:21:48;;;;;;;10.80;5.93;;;;;;;17.34;100.00;99287.09;5023547;28;20431;-52
2022/09/15 06:24:15;;;;;;;10.27;7.70;;;;;;;17.19;100.00;99290.88;5027916;28;20620;-52
2022/09/15 06:26:41;;;;;;;9.80;8.90;;;;;;;17.05;100.00;99302.63;5026450;28;20532;-52
2022/09/15 06:29:10;;;;;;;22.07;8.50;;;;;;;17.05;100.00;99299.94;5028051;28;20502;-52
2022/09/15 06:31:37;;;;;;;10.77;6.60;;;;;;;16.96;100.00;99311.31;5028523;28;20492;-52
2022/09/15 06:34:04;;;;;;;20.03;9.20;;;;;;;17.06;100.00;99309.69;5022490;28;20542;-52
2022/09/15 06:36:31;;;;;;;15.87;8.50;;;;;;;16.89;100.00;99312.72;5022421;28;20790;-52
2022/09/15 06:38:58;;;;;;;8.23;7.43;;;;;;;17.24;100.00;99312.03;5028697;28;20549;-52
2022/09/15 06:41:27;;;;;;;9.70;7.17;;;;;;;17.09;100.00;99320.22;5028710;28;20540;-52
2022/09/15 06:44:08;;;;;;;37.87;9.20;;;;;;;16.98;100.00;99322.78;5028461;28;20536;-52
2022/09/15 06:46:35;;;;;;;12.47;9.03;;;;;;;17.01;100.00;99327.13;5028782;28;21030;-52
2022/09/15 06:49:01;;;;;;;15.50;7.87;;;;;;;17.31;100.00;99319.56;5028781;28;20865;-52
2022/09/15 06:51:30;;;;;;;19.57;7.50;;;;;;;17.76;100.00;99331.50;5028613;28;20458;-52
2022/09/15 06:53:56;;;;;;;8.17;7.47;;;;;;;17.70;100.00;99326.59;5028479;28;20942;-52
2022/09/15 06:56:23;;;;;;;12.40;8.03;;;;;;;17.59;100.00;99326.47;5028421;28;20491;-52
2022/09/15 06:58:49;;;;;;;40.57;9.47;;;;;;;17.86;100.00;99333.50;5007203;28;20526;-52
2022/09/15 07:01:24;;;;;;;14.90;9.30;;;;;;;17.81;100.00;99339.22;5028476;28;20452;-52
2022/09/15 07:03:50;;;;;;;18.23;9.83;;;;;;;17.83;100.00;99340.00;5028494;28;20426;-51
2022/09/15 07:06:17;;;;;;;20.13;8.47;;;;;;;17.55;100.00;99342.94;5028085;28;20918;-52
2022/09/15 07:08:45;;;;;;;12.60;8.53;;;;;;;17.38;100.00;99350.38;5028669;28;20458;-52
2022/09/15 07:11:12;;;;;;;18.97;8.43;;;;;;;17.45;100.00;99348.97;5028243;28;20521;-52
2022/09/15 07:13:39;;;;;;;33.77;8.17;;;;;;;17.37;100.00;99359.41;5028475;28;20455;-52
2022/09/15 07:16:08;;;;;;;6.10;5.43;;;;;;;17.54;100.00;99355.50;5015931;28;20518;-52
2022/09/15 07:18:34;;;;;;;7.67;7.20;;;;;;;17.57;100.00;99362.50;5020579;28;20491;-52
2022/09/15 07:21:10;;;;;;;7.83;5.77;;;;;;;17.40;100.00;99361.84;5028242;28;20903;-52
2022/09/15 07:23:37;;;;;;;9.13;6.70;;;;;;;17.83;100.00;99357.94;5015443;28;20497;-52
2022/09/15 07:26:05;;;;;;;8.73;7.90;;;;;;;17.72;100.00;99367.66;5028384;28;20475;-52
2022/09/15 07:28:32;;;;;;;10.13;8.07;;;;;;;18.15;100.00;99363.63;5026159;28;20475;-52
2022/09/15 07:30:59;;;;;;;13.80;7.00;;;;;;;18.25;100.00;99362.81;5032034;28;20430;-53
2022/09/15 07:33:25;;;;;;;12.60;7.47;;;;;;;18.34;100.00;99366.63;5031496;28;20430;-52
2022/09/15 07:35:56;;;;;;;12.57;8.17;;;;;;;18.15;100.00;99371.69;5031517;28;20487;-52
2022/09/15 07:38:22;;;;;;;8.60;7.80;;;;;;;18.44;100.00;99373.06;5031369;28;20495;-53
2022/09/15 07:40:49;;;;;;;15.03;7.73;;;;;;;18.19;100.00;99374.03;5031858;28;20498;-52
2022/09/15 07:43:15;;;;;;;16.10;10.97;;;;;;;18.27;100.00;99374.31;5031935;28;20434;-52
2022/09/15 07:45:41;;;;;;;12.20;9.10;;;;;;;18.24;100.00;99388.00;5031492;28;20508;-53
2022/09/15 07:48:08;;;;;;;18.70;9.63;;;;;;;18.36;100.00;99386.22;5031632;28;20825;-52
2022/09/15 07:50:34;;;;;;;14.80;8.40;;;;;;;18.31;100.00;99389.25;5031428;28;20433;-53
2022/09/15 07:53:01;;;;;;;16.93;10.27;;;;;;;18.60;100.00;99399.66;5031155;28;20422;-52
2022/09/15 07:55:29;;;;;;;13.63;9.37;;;;;;;18.45;100.00;99398.97;5031203;28;20506;-52
2022/09/15 07:57:57;;;;;;;11.20;8.97;;;;;;;18.34;100.00;99394.41;5021340;28;20482;-52
2022/09/15 08:00:24;;;;;;;12.73;9.03;;;;;;;18.38;100.00;99392.38;5031300;28;20732;-53
2022/09/15 08:02:51;;;;;;;13.87;8.53;;;;;;;18.29;100.00;99398.44;5031041;28;20456;-52
2022/09/15 08:05:18;;;;;;;12.97;8.13;;;;;;;18.03;100.00;99401.22;5031033;28;20480;-52
2022/09/15 08:07:45;;;;;;;13.20;9.40;;;;;;;18.19;100.00;99405.44;5031475;28;20462;-52
2022/09/15 08:10:11;;;;;;;18.13;7.23;;;;;;;18.01;100.00;99411.22;5031316;28;20480;-52
2022/09/15 08:12:39;;;;;;;20.30;9.23;;;;;;;18.18;100.00;99406.44;5030877;28;20456;-52
2022/09/15 08:15:06;;;;;;;20.63;9.57;;;;;;;18.05;100.00;99417.22;5027138;28;20538;-52
2022/09/15 08:17:33;;;;;;;6.97;6.07;;;;;;;18.17;100.00;99415.47;5014558;28;21050;-52
2022/09/15 08:20:00;;;;;;;19.33;7.50;;;;;;;18.14;100.00;99421.09;5030692;28;20840;-52
2022/09/15 08:22:26;;;;;;;11.60;9.73;;;;;;;18.06;100.00;99427.88;5023949;28;20452;-52
2022/09/15 08:24:53;;;;;;;12.63;7.97;;;;;;;18.00;100.00;99428.34;5030922;28;20430;-52
2022/09/15 08:27:19;;;;;;;24.53;9.50;;;;;;;18.16;100.00;99432.59;5026828;28;20468;-51
2022/09/15 08:29:45;;;;;;;10.47;9.20;;;;;;;18.43;100.00;99432.38;5030810;28;20434;-52
2022/09/15 08:32:12;;;;;;;30.00;11.00;;;;;;;18.03;100.00;99435.31;5030352;28;20836;-52
2022/09/15 08:34:38;;;;;;;21.07;8.53;;;;;;;18.31;100.00;99439.53;5030578;28;20476;-52
2022/09/15 08:37:05;;;;;;;13.77;11.23;;;;;;;18.36;100.00;99450.78;5030615;28;20475;-52
2022/09/15 08:39:31;;;;;;;19.33;10.37;;;;;;;18.46;100.00;99443.75;5030413;28;20519;-52
2022/09/15 08:41:59;;;;;;;21.87;12.17;;;;;;;18.24;100.00;99435.59;5030241;28;20505;-52
2022/09/15 08:44:43;;;;;;;15.37;10.27;;;;;;;18.61;100.00;99441.75;5030349;28;20502;-52
2022/09/15 08:47:31;;;;;;;10.33;8.60;;;;;;;18.51;98.36;99438.06;5029985;28;20996;-52
2022/09/15 08:50:13;;;;;;;12.53;8.27;;;;;;;18.49;99.34;99439.97;5030257;28;20513;-53
2022/09/15 08:52:47;;;;;;;32.97;8.67;;;;;;;18.64;98.83;99446.97;5030338;28;20451;-52
2022/09/15 08:55:32;;;;;;;16.63;12.10;;;;;;;18.39;98.37;99447.91;5030177;28;20577;-52
2022/09/15 08:57:58;;;;;;;28.00;9.20;;;;;;;18.52;99.24;99448.69;5019053;28;20526;-52
2022/09/15 09:00:25;;;;;;;21.60;9.97;;;;;;;18.50;98.40;99442.59;5030215;28;20451;-52
2022/09/15 09:03:13;;;;;;;16.53;8.87;;;;;;;18.53;99.50;99445.03;5029847;28;21012;-52
2022/09/15 09:06:30;;;;;;;11.60;8.30;;;;;;;18.85;96.86;99450.69;5029750;28;20836;-52
2022/09/15 09:09:18;;;;;;;11.00;9.50;;;;;;;18.99;96.97;99451.47;4988451;28;21023;-52
2022/09/15 09:11:47;;;;;;;11.40;8.83;;;;;;;18.63;96.01;99454.16;5029892;28;20510;-52
2022/09/15 09:14:41;;;;;;;20.80;10.77;;;;;;;19.33;96.36;99455.13;5029672;28;20861;-52
2022/09/15 09:17:32;;;;;;;17.40;9.67;;;;;;;19.65;94.05;99453.47;5004321;28;20443;-52
2022/09/15 09:20:07;;;;;;;10.03;7.47;;;;;;;19.58;94.75;99457.63;5029809;28;20831;-52
2022/09/15 09:22:38;;;;;;;14.47;9.93;;;;;;;19.70;92.71;99466.59;5022765;28;20852;-52
2022/09/15 09:25:09;;;;;;;17.13;8.20;;;;;;;19.48;92.84;99465.56;5030240;28;20812;-52
2022/09/15 09:27:53;;;;;;;10.50;8.50;;;;;;;19.28;92.32;99463.56;5011311;28;20458;-52
2022/09/15 09:30:22;;;;;;;18.50;7.20;;;;;;;19.86;91.43;99458.13;5029456;28;20550;-52
2022/09/15 09:32:52;;;;;;;8.63;7.53;;;;;;;19.67;91.32;99473.09;5029316;28;20433;-53
2022/09/15 09:35:28;;;;;;;6.83;6.30;;;;;;;19.43;91.70;99466.91;5029559;28;20422;-52
2022/09/15 09:37:55;;;;;;;17.20;7.70;;;;;;;19.23;91.56;99463.94;5029625;28;20537;-52
2022/09/15 09:40:22;;;;;;;8.50;7.07;;;;;;;19.48;93.43;99467.41;5029265;28;20855;-52
2022/09/15 09:42:48;;;;;;;10.63;7.27;;;;;;;19.69;90.14;99467.56;5029378;28;20953;-52
2022/09/15 09:45:18;;;;;;;9.37;7.10;;;;;;;19.81;90.58;99464.75;5029523;28;20452;-52
2022/09/15 09:47:45;;;;;;;11.93;7.03;;;;;;;19.59;91.34;99463.88;5029205;28;21384;-52
2022/09/15 09:50:31;;;;;;;11.50;6.43;;;;;;;19.52;90.82;99466.19;5029149;28;20434;-52
2022/09/15 09:52:58;;;;;;;10.43;6.57;;;;;;;19.80;89.55;99464.88;5029161;28;20422;-52
2022/09/15 09:55:26;;;;;;;8.43;6.57;;;;;;;19.82;90.29;99461.06;5029421;28;20488;-52
2022/09/15 09:58:10;;;;;;;8.97;6.90;;;;;;;20.11;88.49;99457.88;5017858;28;20856;-53
2022/09/15 10:00:39;;;;;;;8.23;5.90;;;;;;;19.96;88.51;99461.81;5029404;28;20426;-52
2022/09/15 10:03:16;;;;;;;8.50;5.23;;;;;;;20.24;87.49;99457.72;5029081;28;20509;-52
2022/09/15 10:05:43;;;;;;;6.70;6.10;;;;;;;20.48;87.10;99457.59;5028857;28;20892;-52
2022/09/15 10:08:18;;;;;;;7.20;6.37;;;;;;;20.65;86.54;99459.72;5029261;28;20426;-52
2022/09/15 10:10:53;;;;;;;6.13;5.73;;;;;;;20.74;85.50;99460.81;5029014;28;20513;-53
2022/09/15 10:13:20;;;;;;;12.03;7.67;;;;;;;20.91;83.73;99460.25;5029307;28;20430;-52
2022/09/15 10:16:01;;;;;;;4.07;3.80;;;;;;;20.81;81.92;99462.84;5019051;28;20498;-53
2022/09/15 10:18:32;;;;;;;8.30;5.27;;;;;;;20.95;81.62;99461.69;5020281;28;20469;-53
2022/09/15 10:21:02;;;;;;;4.47;4.20;;;;;;;20.65;80.63;99448.94;5028580;28;20766;-53
2022/09/15 10:23:31;;;;;;;4.70;4.27;;;;;;;21.22;80.49;99458.47;4996649;28;20495;-52
2022/09/15 10:26:19;;;;;;;5.47;4.90;;;;;;;21.35;80.00;99450.19;5017372;28;20454;-52
2022/09/15 10:29:11;;;;;;;4.67;4.10;;;;;;;21.00;80.27;99449.53;5025229;28;20476;-51
2022/09/15 10:31:39;;;;;;;5.27;3.73;;;;;;;21.15;78.55;99457.31;5028901;28;20426;-50
2022/09/15 10:34:24;;;;;;;5.00;3.90;;;;;;;21.00;78.15;99444.13;5028844;28;20954;-51
2022/09/15 10:37:05;;;;;;;7.60;4.50;;;;;;;21.13;80.46;99445.78;5029071;28;20525;-53
2022/09/15 10:40:19;;;;;;;2.93;2.70;;;;;;;21.53;77.36;99452.19;5028424;28;20462;-53
2022/09/15 10:42:52;;;;;;;2.20;2.10;;;;;;;21.48;76.06;99446.28;4950095;28;20440;-50
2022/09/15 10:45:31;;;;;;;8.83;3.10;;;;;;;21.37;76.06;99464.44;5024038;28;20484;-50
2022/09/15 10:48:02;;;;;;;2.27;2.17;;;;;;;21.13;77.83;99457.44;5028296;28;20471;-50
2022/09/15 10:50:32;;;;;;;6.70;2.80;;;;;;;20.70;80.71;99454.81;5003922;28;20434;-50
2022/09/15 10:53:17;;;;;;;2.40;2.20;;;;;;;20.32;83.00;99461.53;5028725;28;20448;-50
2022/09/15 10:56:11;;;;;;;5.00;2.80;;;;;;;19.73;85.15;99469.03;5028769;28;20471;-51
2022/09/15 10:58:55;;;;;;;2.70;2.50;;;;;;;19.92;86.10;99474.69;5018303;28;20524;-51
2022/09/15 11:01:27;;;;;;;7.73;1.67;;;;;;;19.49;88.76;99471.81;5028353;28;20938;-51
2022/09/15 11:04:16;;;;;;;2.50;2.30;;;;;;;19.89;87.02;99472.25;5032023;28;20451;-51
2022/09/15 11:07:09;;;;;;;2.80;2.03;;;;;;;19.77;86.90;99460.59;5031970;28;20828;-51
2022/09/15 11:09:46;;;;;;;2.10;2.00;;;;;;;19.75;87.45;99473.34;5032542;28;20418;-51
2022/09/15 11:12:27;;;;;;;2.57;2.40;;;;;;;20.05;86.04;99469.16;5032252;28;20483;-51
2022/09/15 11:15:05;;;;;;;2.07;1.97;;;;;;;19.90;86.06;99473.09;5029317;28;20430;-51
2022/09/15 11:17:59;;;;;;;3.37;3.17;;;;;;;19.85;85.59;99483.38;5015935;28;20438;-51
2022/09/15 11:20:58;;;;;;;5.20;2.67;;;;;;;20.35;84.71;99477.47;5014386;28;20447;-51
2022/09/15 11:23:33;;;;;;;3.57;2.80;;;;;;;20.36;84.16;99479.19;5025959;28;20451;-51
2022/09/15 11:26:08;;;;;;;1.10;1.00;;;;;;;20.33;80.58;99486.66;5031701;28;20954;-51
2022/09/15 11:28:44;;;;;;;7.10;3.20;;;;;;;20.39;79.97;99491.56;5028524;28;20977;-51
2022/09/15 11:31:22;;;;;;;1.67;1.57;;;;;;;20.28;81.07;99491.56;5031977;28;20426;-51
2022/09/15 11:33:55;;;;;;;1.80;1.70;;;;;;;20.60;80.99;99487.13;5031460;28;20469;-51
2022/09/15 11:36:24;;;;;;;1.57;1.47;;;;;;;20.48;80.10;99492.69;5031923;28;20474;-51
2022/09/15 11:39:17;;;;;;;4.87;2.23;;;;;;;20.47;80.71;99491.81;5031704;28;20473;-51
2022/09/15 11:41:55;;;;;;;1.83;1.20;;;;;;;20.47;80.86;99497.22;5032227;28;20426;-51
2022/09/15 11:44:31;;;;;;;1.37;1.27;;;;;;;21.00;80.93;99489.19;5031454;28;20896;-51